Accueil
METAR-TAF:

METAR-TAF

Aéroports :

Norwich, Angleterre

Aéroport international de Norwich

latitude: 52-38N, longitude: 001-18E, altitude: 14 m

Observation

Le bulletin a été fait il y a 32 minutes, à 01:20 UTC
Vent 10 kt de ouest/sud-ouest, variant entre sud/sud-ouest et ouest
Température 17°C
Humidité 77%
Pression 1012 hPa
Visibilité 10 km ou plus

METAR: EGSH 240120Z AUTO 24010KT 200V270 9999 BKN022/// 17/13 Q1012

Heure: 02:52 (01:52 UTC)

Prévision

Le bulletin a été fait il y a 5 heures et 54 minutes, à 19:58 UTC
Prévision valable du 23 à 21 UTC au 23 à 24 UTC
Vent 14 kt de ouest/sud-ouest
Visibilité 10 km ou plus
Nuages épars à une hauteur de 2500 ft
Probabilité 40% :
Temporairement
du 23 à 22 UTC au 23 à 24 UTC
Nuages fragmentés à une hauteur de 1400 ft

TAF: EGSH 231958Z 2321/2324 25014KT 9999 SCT025 PROB40 TEMPO 2322/2324 BKN014

Observations et prévisions météorologiques de plus de 4000 aéroports (messages METAR et TAF).

Les stations disponibles sont représentées par des disques jaunes et rouges sur la carte.

Passer la souris dessus pour voir le nom de la station.

Cliquer dessus pour voir les observations et prévisions météorologiques.

Pour changer de carte: cliquez sur les boutons verts avec une croix noire pour zoomer, sur le bouton vert avec un tiret pour effectuer un zoom arrière, ou sur les flèches vertes pour les cartes adjacentes.


METAR-TAF: